createdAt,value
2018-11-23T00:13:52.773Z,4.6
2018-11-23T00:29:04.725Z,4.5
2018-11-23T00:44:16.965Z,4.5
2018-11-23T00:59:29.171Z,4.4
2018-11-23T01:14:41.527Z,4.3
2018-11-23T01:29:53.670Z,4.3
2018-11-23T01:45:05.661Z,4.5
2018-11-23T02:00:15.312Z,4.4
2018-11-23T02:15:30.109Z,4.4
2018-11-23T02:30:42.386Z,4.4
2018-11-23T02:45:54.451Z,4.3
2018-11-23T03:00:58.490Z,4.3
2018-11-23T03:16:21.151Z,4.4
2018-11-23T03:31:31.036Z,4.5
2018-11-23T03:46:43.627Z,4.6
2018-11-23T04:01:55.963Z,4.7
2018-11-23T04:17:07.887Z,4.6
2018-11-23T04:32:20.264Z,4.5
2018-11-23T04:47:32.377Z,4.6
2018-11-23T05:02:44.612Z,4.6
2018-11-23T05:17:51.182Z,4.5
2018-11-23T05:33:09.279Z,4.5
2018-11-23T05:48:26.768Z,4.4
2018-11-23T06:03:33.620Z,4.6
2018-11-23T06:18:45.836Z,4.7
2018-11-23T06:33:58.165Z,4.7
2018-11-23T06:49:10.465Z,4.7
2018-11-23T07:04:22.830Z,5
2018-11-23T07:19:35.188Z,4.9
2018-11-23T07:34:44.323Z,5.2
2018-11-23T07:50:00.257Z,5.3
2018-11-23T08:05:12.779Z,5.3
2018-11-23T08:20:25.234Z,5.5
2018-11-23T08:35:28.399Z,5.7
2018-11-23T08:50:50.601Z,5.9
2018-11-23T09:06:03.356Z,6.1
2018-11-23T09:21:16.214Z,6.4
2018-11-23T09:36:29.291Z,6.8
2018-11-23T09:51:40.106Z,7.2
2018-11-23T10:06:55.618Z,7.6
2018-11-23T10:22:09.282Z,7.8
2018-11-23T10:37:23.343Z,8
2018-11-23T10:52:25.968Z,8.1
2018-11-23T11:07:53.116Z,8.6
2018-11-23T11:23:12.511Z,9.2
2018-11-23T11:38:26.589Z,9.7
2018-11-23T11:53:41.985Z,9.9
2018-11-23T12:08:57.608Z,10
2018-11-23T12:24:09.427Z,10
2018-11-23T12:39:32.818Z,10.1
2018-11-23T12:54:51.895Z,9.8
2018-11-23T13:10:10.457Z,9.3
2018-11-23T13:25:28.724Z,8.9
2018-11-23T13:40:46.143Z,8.7
2018-11-23T13:55:52.004Z,8.5
2018-11-23T14:11:19.593Z,8.3
2018-11-23T14:26:34.712Z,7.9
2018-11-23T14:41:49.361Z,7.5
2018-11-23T14:57:03.799Z,7.1
2018-11-23T15:12:16.538Z,6.7
2018-11-23T15:27:29.873Z,6.5
2018-11-23T15:42:42.654Z,6
2018-11-23T15:57:57.086Z,5.6
2018-11-23T16:13:11.244Z,5.4
2018-11-23T16:28:14.530Z,5.1
2018-11-23T16:43:32.290Z,4.8
2018-11-23T16:58:44.533Z,4.6
2018-11-23T17:13:56.823Z,4.5
2018-11-23T17:29:09.048Z,4.3
2018-11-23T17:44:21.060Z,4.3
2018-11-23T17:59:33.257Z,4.1
2018-11-23T18:14:45.086Z,4
2018-11-23T18:29:57.894Z,5.2
2018-11-23T18:45:05.818Z,4.9
2018-11-23T19:00:22.160Z,4.3
2018-11-23T19:15:34.242Z,4.1
2018-11-23T19:30:46.345Z,4
2018-11-23T19:45:58.348Z,3.8
2018-11-23T20:01:10.344Z,3.9
2018-11-23T20:16:22.368Z,3.8
2018-11-23T20:31:34.658Z,3.9
2018-11-23T20:46:46.263Z,3.9
2018-11-23T21:01:56.291Z,3.9
2018-11-23T21:17:10.309Z,4
2018-11-23T21:32:22.370Z,4
2018-11-23T21:47:34.598Z,4.2
2018-11-23T22:02:38.467Z,4.2
2018-11-23T22:17:58.673Z,4.2
2018-11-23T22:33:10.823Z,4.3
2018-11-23T22:48:22.924Z,4.5
2018-11-23T23:03:35.265Z,4.7
2018-11-23T23:18:47.348Z,4.8
2018-11-23T23:34:00.116Z,5.1
2018-11-23T23:49:12.330Z,5
